ePrivacy and GPDR Cookie Consent by Cookie Consent
EmailTwitter


Surface observations / United Kingdom / EGUB (03658)

Regions: Quebec | Canada | USA | Europe | France | UK | Elsewhere
Station
Display
Info & Location for EGUB (03658) | Help decoding METAR

Weather Conditions observed on 2021/04/19 at 23:50 UTC at BENSON RAF, UK (EGUB)

Temperature: 4.0 Celsius.

Dewpoint: 0.0 Celsius.

Relative Humidity: 75%

Winds: Southeast at 4 km/h or 2 knots.

Mean Sea level Pressure: 101.80 kilopascals.

Horizontal visibility: 6.21 statute miles or 9.94 kilometers.

Coded METAR:

EGUB 192350Z AUTO 14002KT 9999 // NCD 04/00 Q1018=